Sterling, Oklahoma
Current Conditions -  °F | °C
As of 6:58 PM on Wednesday 26 Nov 2014 (Local Time) from KFSI Reporting Station
Clear Clear  
Wind Chill: 45°   Ceiling: Unl
Heat Index: 48°   Visibility: 10mi
Dew Point: 27°   Wind: 6mph
Humidity: 44%   Direction: 340°NNW
Pressure: 30.31"   Gusts: NA
Location:  34.75°N, 98.17°W
Report Text: KFSI 270058Z AUTO 34005KT 10SM CLR 09/M03 A3031 RMK AO2 SLP266 T00891027
Loading
Personal Weather Stations






























Interactive Weather Map New forecast layout! Learn more

10-Day Weather Forecast

Advertisements
Track Severe Weather on mobile